createdAt,value
2022-08-11T00:01:27.113Z,21.60
2022-08-11T00:04:00.640Z,21.50
2022-08-11T00:06:31.276Z,21.60
2022-08-11T00:09:00.495Z,21.50
2022-08-11T00:11:41.556Z,21.50
2022-08-11T00:14:24.470Z,21.40
2022-08-11T00:17:09.903Z,21.40
2022-08-11T00:20:14.208Z,21.40
2022-08-11T00:22:33.011Z,21.40
2022-08-11T00:25:10.193Z,21.30
2022-08-11T00:27:39.904Z,21.30
2022-08-11T00:30:12.147Z,21.30
2022-08-11T00:32:42.733Z,21.30
2022-08-11T00:35:51.318Z,21.20
2022-08-11T00:38:02.906Z,21.20
2022-08-11T00:40:58.813Z,21.20
2022-08-11T00:44:17.522Z,21.20
2022-08-11T00:46:56.915Z,21.10
2022-08-11T00:49:39.475Z,21.10
2022-08-11T00:52:31.504Z,21.10
2022-08-11T00:55:17.119Z,21.10
2022-08-11T00:58:22.594Z,21.00
2022-08-11T01:01:17.712Z,21.00
2022-08-11T01:04:09.413Z,21.00
2022-08-11T01:07:14.142Z,21.00
2022-08-11T01:10:28.596Z,20.90
2022-08-11T01:13:34.536Z,20.90
2022-08-11T01:16:35.802Z,20.90
2022-08-11T01:20:44.889Z,20.90
2022-08-11T01:22:49.137Z,20.80
2022-08-11T01:25:57.696Z,20.80
2022-08-11T01:28:27.867Z,20.80
2022-08-11T01:31:15.797Z,20.70
2022-08-11T01:33:59.585Z,20.80
2022-08-11T01:36:53.547Z,20.70
2022-08-11T01:40:03.529Z,20.70
2022-08-11T01:43:23.734Z,20.70
2022-08-11T01:46:21.357Z,20.70
2022-08-11T01:48:48.403Z,20.60
2022-08-11T01:52:13.197Z,20.60
2022-08-11T01:55:02.252Z,20.60
2022-08-11T01:57:38.630Z,20.50
2022-08-11T02:00:19.951Z,20.50
2022-08-11T02:02:58.539Z,20.50
2022-08-11T02:05:46.095Z,20.50
2022-08-11T02:08:35.849Z,20.40
2022-08-11T02:11:38.279Z,20.40
2022-08-11T02:14:26.614Z,20.40
2022-08-11T02:17:19.093Z,20.40
2022-08-11T02:20:26.096Z,20.30
2022-08-11T02:24:07.197Z,20.30
2022-08-11T02:26:21.257Z,20.30
2022-08-11T02:28:58.565Z,20.30
2022-08-11T02:32:24.222Z,20.20
2022-08-11T02:34:59.827Z,20.20
2022-08-11T02:37:34.721Z,20.20
2022-08-11T02:40:45.998Z,20.10
2022-08-11T02:43:47.932Z,20.10
2022-08-11T02:46:31.760Z,20.00
2022-08-11T02:49:27.085Z,20.00
2022-08-11T02:52:08.726Z,19.90
2022-08-11T02:54:54.801Z,19.80
2022-08-11T02:57:33.943Z,19.80
2022-08-11T03:00:13.826Z,19.70
2022-08-11T03:02:49.040Z,19.70
2022-08-11T03:05:31.363Z,19.60
2022-08-11T03:08:19.515Z,19.60
2022-08-11T03:11:36.436Z,19.50
2022-08-11T03:14:45.458Z,19.50
2022-08-11T03:17:44.126Z,19.40
2022-08-11T03:20:21.611Z,19.40
2022-08-11T03:23:03.553Z,19.40
2022-08-11T03:25:54.835Z,19.30
2022-08-11T03:28:34.062Z,19.30
2022-08-11T03:31:36.695Z,19.20
2022-08-11T03:34:11.378Z,19.20
2022-08-11T03:36:59.305Z,19.10
2022-08-11T03:39:58.024Z,19.10
2022-08-11T03:42:33.271Z,19.10
2022-08-11T03:45:12.640Z,19.10
2022-08-11T03:47:52.434Z,19.10
2022-08-11T03:50:31.607Z,19.10
2022-08-11T03:53:35.452Z,19.00
2022-08-11T03:56:14.768Z,19.10
2022-08-11T03:58:46.515Z,19.00
2022-08-11T04:01:34.528Z,19.10
2022-08-11T04:04:31.575Z,19.10
2022-08-11T04:07:20.858Z,19.10
2022-08-11T04:10:03.198Z,19.10
2022-08-11T04:12:42.050Z,19.10
2022-08-11T04:15:42.764Z,19.10
2022-08-11T04:18:35.151Z,19.20
2022-08-11T04:21:05.110Z,19.20
2022-08-11T04:24:36.771Z,19.30
2022-08-11T04:27:01.954Z,19.30
2022-08-11T04:30:03.865Z,19.30
2022-08-11T04:32:56.514Z,19.40
2022-08-11T04:35:51.500Z,19.40
2022-08-11T04:38:44.832Z,19.40
2022-08-11T04:41:24.007Z,19.50
2022-08-11T04:44:13.935Z,19.60
2022-08-11T04:48:03.853Z,19.60
2022-08-11T04:51:16.365Z,19.70
2022-08-11T04:54:28.749Z,19.80
2022-08-11T04:57:24.734Z,19.80
2022-08-11T05:00:16.288Z,19.90
2022-08-11T05:03:10.561Z,19.90
2022-08-11T05:05:57.150Z,20.10
2022-08-11T05:09:02.554Z,20.20
2022-08-11T05:11:39.039Z,20.30
2022-08-11T05:14:57.545Z,20.40
2022-08-11T05:18:13.879Z,20.50
2022-08-11T05:21:08.477Z,20.60
2022-08-11T05:24:05.042Z,20.70
2022-08-11T05:27:12.823Z,20.80
2022-08-11T05:30:11.985Z,20.90
2022-08-11T05:33:02.290Z,21.00
2022-08-11T05:36:02.267Z,21.20
2022-08-11T05:38:52.217Z,21.30
2022-08-11T05:41:40.567Z,21.30
2022-08-11T05:44:27.467Z,21.50
2022-08-11T05:47:14.076Z,21.60
2022-08-11T05:50:00.278Z,21.70
2022-08-11T05:52:55.571Z,21.80
2022-08-11T05:56:02.349Z,21.90
2022-08-11T05:58:42.650Z,22.00
2022-08-11T06:01:13.246Z,22.10
2022-08-11T06:04:03.569Z,22.30
2022-08-11T06:06:31.556Z,22.40
2022-08-11T06:08:59.959Z,22.50
2022-08-11T06:11:44.345Z,22.60
2022-08-11T06:14:15.657Z,22.70
2022-08-11T06:16:47.789Z,22.90
2022-08-11T06:19:16.268Z,22.90
2022-08-11T06:21:48.129Z,22.90
2022-08-11T06:24:17.946Z,23.00
2022-08-11T06:29:55.483Z,23.10
2022-08-11T06:32:33.067Z,23.10
2022-08-11T06:35:12.178Z,23.20
2022-08-11T06:37:48.716Z,23.30
2022-08-11T06:40:27.728Z,23.30
2022-08-11T06:43:21.399Z,23.40
2022-08-11T06:46:03.401Z,23.40
2022-08-11T06:48:33.681Z,23.40
2022-08-11T06:51:13.336Z,23.50
2022-08-11T06:54:04.422Z,23.60
2022-08-11T06:57:27.875Z,23.60
2022-08-11T07:00:01.879Z,23.70
2022-08-11T07:02:34.923Z,23.80
2022-08-11T07:05:04.236Z,23.90
2022-08-11T07:08:34.139Z,23.90
2022-08-11T07:12:08.537Z,24.00
2022-08-11T07:14:59.895Z,24.10
2022-08-11T07:17:30.637Z,24.20
2022-08-11T07:20:23.630Z,24.30
2022-08-11T07:23:16.954Z,24.30
2022-08-11T07:26:05.787Z,24.40
2022-08-11T07:28:56.359Z,24.50
2022-08-11T07:31:36.608Z,24.60
2022-08-11T07:34:30.643Z,24.70
2022-08-11T07:37:01.225Z,24.70
2022-08-11T07:39:33.232Z,24.80
2022-08-11T07:42:07.123Z,24.80
2022-08-11T07:44:59.579Z,24.90
2022-08-11T07:47:46.185Z,25.10
2022-08-11T07:50:32.710Z,25.10
2022-08-11T07:53:01.497Z,25.10
2022-08-11T07:55:50.873Z,25.10
2022-08-11T07:58:45.811Z,25.10
2022-08-11T08:01:40.778Z,25.20
2022-08-11T08:04:30.063Z,25.20
2022-08-11T08:07:17.284Z,25.30
2022-08-11T08:10:03.242Z,25.40
2022-08-11T08:12:49.800Z,25.40
2022-08-11T08:15:38.738Z,25.60
2022-08-11T08:18:20.964Z,25.80
2022-08-11T08:21:12.065Z,26.00
2022-08-11T08:23:42.195Z,26.20
2022-08-11T08:26:31.923Z,26.30
2022-08-11T08:29:21.215Z,26.50
2022-08-11T08:31:51.220Z,26.80
2022-08-11T08:34:20.216Z,27.00
2022-08-11T08:36:50.583Z,27.20
2022-08-11T08:39:22.429Z,27.40
2022-08-11T08:41:56.201Z,27.40
2022-08-11T08:44:42.044Z,27.30
2022-08-11T08:47:42.492Z,27.10
2022-08-11T08:50:10.585Z,27.00
2022-08-11T08:52:50.998Z,26.80
2022-08-11T08:55:20.363Z,26.60
2022-08-11T08:57:50.330Z,26.40
2022-08-11T09:00:23.157Z,26.20
2022-08-11T09:02:52.261Z,26.00
2022-08-11T09:05:20.087Z,25.70
2022-08-11T09:07:53.312Z,25.60
2022-08-11T09:10:21.592Z,25.50
2022-08-11T09:12:50.453Z,25.40
2022-08-11T09:15:20.176Z,25.40
2022-08-11T09:17:51.660Z,25.40
2022-08-11T09:20:25.492Z,25.60
2022-08-11T09:26:30.254Z,26.10
2022-08-11T09:29:00.642Z,26.60
2022-08-11T09:31:37.243Z,27.00
2022-08-11T09:34:10.290Z,27.30
2022-08-11T09:36:58.379Z,27.50
2022-08-11T09:39:46.882Z,27.50
2022-08-11T09:42:16.426Z,27.50
2022-08-11T09:44:51.014Z,27.40
2022-08-11T09:47:30.130Z,27.30
2022-08-11T09:50:00.827Z,27.20
2022-08-11T09:52:57.170Z,27.20
2022-08-11T09:55:28.775Z,27.10
2022-08-11T09:58:41.574Z,27.10
2022-08-11T10:01:08.042Z,27.10
2022-08-11T10:03:40.515Z,27.10
2022-08-11T10:06:33.296Z,27.00
2022-08-11T10:09:06.927Z,27.10
2022-08-11T10:11:38.421Z,27.10
2022-08-11T10:14:31.231Z,27.10
2022-08-11T10:17:06.670Z,27.10
2022-08-11T10:19:39.153Z,27.20
2022-08-11T10:22:27.585Z,27.20
2022-08-11T10:25:19.950Z,27.10
2022-08-11T10:28:30.853Z,27.10
2022-08-11T10:31:04.821Z,27.10
2022-08-11T10:33:59.398Z,27.10
2022-08-11T10:36:29.286Z,27.20
2022-08-11T10:38:58.579Z,27.30
2022-08-11T10:42:08.719Z,27.40
2022-08-11T10:44:38.709Z,27.40
2022-08-11T10:47:25.472Z,27.30
2022-08-11T10:50:14.262Z,27.30
2022-08-11T10:53:00.394Z,27.30
2022-08-11T10:55:49.514Z,27.40
2022-08-11T10:58:36.419Z,27.50
2022-08-11T11:01:05.511Z,27.80
2022-08-11T11:03:37.039Z,28.00
2022-08-11T11:06:45.528Z,28.30
2022-08-11T11:09:20.018Z,28.40
2022-08-11T11:12:12.557Z,28.40
2022-08-11T11:15:00.916Z,28.50
2022-08-11T11:17:56.507Z,28.50
2022-08-11T11:20:37.650Z,28.50
2022-08-11T11:23:32.880Z,28.60
2022-08-11T11:26:27.102Z,28.70
2022-08-11T11:29:17.163Z,28.70
2022-08-11T11:32:08.480Z,28.70
2022-08-11T11:34:53.448Z,28.80
2022-08-11T11:37:23.946Z,28.90
2022-08-11T11:39:54.283Z,29.00
2022-08-11T11:42:27.630Z,29.00
2022-08-11T11:44:57.823Z,28.90
2022-08-11T11:47:31.443Z,29.00
2022-08-11T11:49:59.908Z,29.00
2022-08-11T11:52:27.696Z,29.10
2022-08-11T11:55:00.491Z,29.20
2022-08-11T11:57:59.150Z,29.20
2022-08-11T12:00:48.017Z,29.20
2022-08-11T12:03:16.407Z,29.10
2022-08-11T12:05:44.338Z,29.10
2022-08-11T12:08:23.373Z,29.10
2022-08-11T12:11:22.200Z,29.20
2022-08-11T12:13:52.206Z,29.30
2022-08-11T12:16:34.114Z,29.50
2022-08-11T12:19:06.795Z,29.70
2022-08-11T12:21:36.762Z,29.70
2022-08-11T12:24:29.235Z,29.80
2022-08-11T12:27:18.258Z,29.90
2022-08-11T12:29:55.306Z,30.00
2022-08-11T12:32:31.784Z,29.90
2022-08-11T12:35:00.191Z,29.80
2022-08-11T12:37:31.970Z,29.90
2022-08-11T12:40:43.427Z,29.90
2022-08-11T12:43:38.005Z,30.10
2022-08-11T12:46:09.220Z,30.20
2022-08-11T12:49:02.342Z,30.20
2022-08-11T12:52:11.081Z,30.20
2022-08-11T12:55:03.055Z,30.40
2022-08-11T12:57:57.439Z,30.60
2022-08-11T13:00:45.961Z,30.70
2022-08-11T13:03:33.292Z,30.80
2022-08-11T13:06:04.149Z,31.00
2022-08-11T13:08:35.648Z,31.10
2022-08-11T13:11:22.529Z,31.20
2022-08-11T13:13:57.155Z,31.20
2022-08-11T13:16:56.936Z,31.10
2022-08-11T13:19:24.342Z,30.80
2022-08-11T13:21:53.038Z,30.50
2022-08-11T13:24:21.864Z,30.40
2022-08-11T13:26:50.574Z,30.10
2022-08-11T13:29:20.214Z,30.10
2022-08-11T13:31:48.344Z,29.90
2022-08-11T13:34:17.818Z,29.90
2022-08-11T13:36:46.124Z,29.90
2022-08-11T13:39:14.262Z,29.90
2022-08-11T13:41:45.183Z,29.80
2022-08-11T13:44:21.612Z,29.80
2022-08-11T13:46:53.009Z,29.90
2022-08-11T13:49:27.867Z,30.00
2022-08-11T13:51:56.186Z,30.20
2022-08-11T13:54:27.531Z,30.30
2022-08-11T13:57:00.436Z,30.40
2022-08-11T13:59:43.693Z,30.40
2022-08-11T14:02:29.279Z,30.50
2022-08-11T14:05:22.925Z,30.40
2022-08-11T14:07:53.355Z,30.30
2022-08-11T14:10:27.079Z,30.10
2022-08-11T14:13:18.072Z,30.20
2022-08-11T14:15:46.997Z,30.20
2022-08-11T14:18:26.823Z,30.20
2022-08-11T14:21:15.516Z,30.20
2022-08-11T14:23:55.109Z,30.20
2022-08-11T14:26:23.556Z,30.20
2022-08-11T14:29:06.077Z,30.10
2022-08-11T14:31:36.001Z,29.80
2022-08-11T14:34:14.906Z,29.60
2022-08-11T14:36:47.509Z,29.50
2022-08-11T14:39:22.923Z,29.40
2022-08-11T14:42:22.932Z,29.30
2022-08-11T14:45:16.225Z,29.20
2022-08-11T14:47:53.681Z,29.00
2022-08-11T14:50:26.954Z,28.90
2022-08-11T14:52:59.224Z,28.70
2022-08-11T14:55:51.851Z,28.60
2022-08-11T14:58:24.449Z,28.60
2022-08-11T15:01:01.493Z,28.50
2022-08-11T15:03:33.549Z,28.40
2022-08-11T15:06:02.529Z,28.20
2022-08-11T15:08:52.213Z,28.00
2022-08-11T15:11:40.544Z,27.80
2022-08-11T15:14:09.981Z,27.70
2022-08-11T15:16:59.895Z,27.60
2022-08-11T15:19:40.313Z,27.60
2022-08-11T15:22:29.331Z,27.50
2022-08-11T15:24:59.703Z,27.50
2022-08-11T15:27:48.463Z,27.50
2022-08-11T15:30:35.042Z,27.50
2022-08-11T15:33:26.241Z,27.50
2022-08-11T15:36:14.609Z,27.40
2022-08-11T15:38:55.480Z,27.40
2022-08-11T15:41:58.377Z,27.50
2022-08-11T15:45:02.643Z,27.50
2022-08-11T15:47:38.478Z,27.50
2022-08-11T15:50:14.909Z,27.50
2022-08-11T15:52:59.248Z,27.50
2022-08-11T15:55:32.258Z,27.40
2022-08-11T15:58:21.938Z,27.30
2022-08-11T16:01:09.980Z,27.20
2022-08-11T16:04:12.654Z,27.20
2022-08-11T16:07:01.089Z,27.10
2022-08-11T16:09:51.997Z,27.00
2022-08-11T16:12:25.879Z,26.90
2022-08-11T16:15:15.037Z,26.90
2022-08-11T16:17:52.888Z,26.80
2022-08-11T16:20:24.576Z,26.80
2022-08-11T16:23:01.535Z,26.70
2022-08-11T16:27:06.117Z,26.70
2022-08-11T16:28:22.257Z,26.70
2022-08-11T16:30:50.818Z,26.80
2022-08-11T16:33:47.947Z,27.10
2022-08-11T16:36:30.758Z,27.30
2022-08-11T16:39:00.260Z,27.50
2022-08-11T16:41:50.062Z,27.40
2022-08-11T16:44:38.403Z,27.10
2022-08-11T16:47:17.074Z,26.90
2022-08-11T16:49:53.904Z,26.70
2022-08-11T16:52:23.233Z,26.70
2022-08-11T16:54:52.929Z,26.90
2022-08-11T16:57:44.321Z,27.40
2022-08-11T17:00:15.699Z,27.50
2022-08-11T17:03:05.720Z,27.30
2022-08-11T17:05:57.748Z,27.00
2022-08-11T17:08:57.504Z,26.70
2022-08-11T17:11:49.874Z,26.60
2022-08-11T17:14:35.521Z,26.40
2022-08-11T17:17:14.808Z,26.30
2022-08-11T17:20:41.721Z,26.30
2022-08-11T17:22:59.831Z,26.20
2022-08-11T17:25:32.343Z,26.10
2022-08-11T17:28:21.416Z,26.00
2022-08-11T17:31:22.343Z,25.90
2022-08-11T17:34:11.246Z,25.80
2022-08-11T17:36:44.517Z,25.80
2022-08-11T17:39:14.519Z,25.70
2022-08-11T17:42:02.931Z,25.70
2022-08-11T17:44:50.149Z,25.60
2022-08-11T17:47:38.599Z,25.60
2022-08-11T17:50:17.869Z,25.50
2022-08-11T17:53:05.822Z,25.50
2022-08-11T17:55:53.990Z,25.50
2022-08-11T17:58:40.736Z,25.40
2022-08-11T18:01:10.976Z,25.40
2022-08-11T18:03:41.163Z,25.30
2022-08-11T18:06:14.021Z,25.20
2022-08-11T18:09:04.783Z,25.10
2022-08-11T18:12:10.681Z,25.10
2022-08-11T18:15:00.528Z,25.10
2022-08-11T18:17:46.550Z,25.00
2022-08-11T18:20:33.014Z,25.00
2022-08-11T18:23:21.736Z,25.00
2022-08-11T18:26:28.843Z,24.90
2022-08-11T18:29:16.065Z,24.90
2022-08-11T18:32:09.320Z,24.90
2022-08-11T18:35:00.197Z,24.80
2022-08-11T18:37:51.888Z,24.80
2022-08-11T18:40:41.975Z,24.70
2022-08-11T18:43:30.350Z,24.70
2022-08-11T18:46:21.315Z,24.60
2022-08-11T18:49:15.869Z,24.50
2022-08-11T18:52:06.391Z,24.50
2022-08-11T18:54:57.674Z,24.40
2022-08-11T18:57:54.096Z,24.30
2022-08-11T19:00:44.620Z,24.20
2022-08-11T19:03:43.238Z,24.10
2022-08-11T19:06:40.218Z,24.00
2022-08-11T19:09:30.731Z,23.90
2022-08-11T19:12:17.717Z,23.90
2022-08-11T19:15:05.008Z,23.80
2022-08-11T19:17:53.105Z,23.70
2022-08-11T19:20:42.038Z,23.70
2022-08-11T19:23:33.441Z,23.60
2022-08-11T19:26:21.478Z,23.60
2022-08-11T19:29:09.230Z,23.50
2022-08-11T19:32:17.029Z,23.50
2022-08-11T19:35:04.570Z,23.50
2022-08-11T19:37:51.520Z,23.50
2022-08-11T19:40:38.490Z,23.40
2022-08-11T19:43:26.192Z,23.40
2022-08-11T19:46:19.065Z,23.30
2022-08-11T19:49:09.174Z,23.30
2022-08-11T19:51:56.244Z,23.20
2022-08-11T19:54:48.308Z,23.20
2022-08-11T19:57:39.594Z,23.10
2022-08-11T20:00:33.147Z,23.10
2022-08-11T20:03:20.616Z,23.00
2022-08-11T20:06:11.331Z,23.00
2022-08-11T20:09:01.639Z,23.00
2022-08-11T20:11:54.292Z,22.90
2022-08-11T20:14:45.193Z,22.90
2022-08-11T20:17:32.428Z,22.90
2022-08-11T20:20:23.435Z,22.90
2022-08-11T20:23:12.889Z,22.80
2022-08-11T20:26:14.054Z,22.80
2022-08-11T20:29:09.169Z,22.80
2022-08-11T20:31:57.712Z,22.70
2022-08-11T20:34:43.595Z,22.70
2022-08-11T20:37:30.782Z,22.60
2022-08-11T20:40:23.760Z,22.60
2022-08-11T20:44:05.036Z,22.50
2022-08-11T20:46:16.720Z,22.40
2022-08-11T20:49:03.843Z,22.40
2022-08-11T20:51:51.161Z,22.40
2022-08-11T20:54:43.878Z,22.40
2022-08-11T20:57:58.912Z,22.40
2022-08-11T21:00:44.061Z,22.30
2022-08-11T21:03:35.541Z,22.30
2022-08-11T21:06:31.530Z,22.30
2022-08-11T21:09:23.985Z,22.30
2022-08-11T21:12:30.435Z,22.20
2022-08-11T21:15:38.931Z,22.10
2022-08-11T21:18:29.562Z,22.10
2022-08-11T21:21:19.464Z,22.00
2022-08-11T21:24:09.218Z,22.10
2022-08-11T21:27:03.401Z,22.00
2022-08-11T21:29:52.861Z,22.00
2022-08-11T21:32:40.995Z,22.00
2022-08-11T21:35:30.158Z,21.90
2022-08-11T21:38:18.583Z,21.90
2022-08-11T21:41:07.079Z,21.90
2022-08-11T21:43:54.244Z,21.90
2022-08-11T21:46:41.827Z,21.90
2022-08-11T21:49:29.872Z,21.80
2022-08-11T21:52:15.927Z,21.80
2022-08-11T21:55:03.675Z,21.80
2022-08-11T21:57:50.722Z,21.80
2022-08-11T22:00:36.543Z,21.80
2022-08-11T22:03:24.197Z,21.90
2022-08-11T22:06:11.106Z,21.90
2022-08-11T22:08:57.158Z,21.90
2022-08-11T22:11:43.382Z,21.90
2022-08-11T22:14:29.232Z,21.80
2022-08-11T22:17:14.848Z,21.80
2022-08-11T22:20:01.101Z,21.80
2022-08-11T22:22:49.088Z,21.70
2022-08-11T22:25:53.792Z,21.60
2022-08-11T22:28:41.014Z,21.60
2022-08-11T22:31:29.716Z,21.60
2022-08-11T22:34:15.660Z,21.60
2022-08-11T22:37:03.728Z,21.50
2022-08-11T22:39:59.666Z,21.50
2022-08-11T22:42:49.618Z,21.50
2022-08-11T22:45:35.846Z,21.40
2022-08-11T22:48:23.754Z,21.30
2022-08-11T22:51:11.097Z,21.30
2022-08-11T22:53:59.346Z,21.20
2022-08-11T22:56:46.924Z,21.10
2022-08-11T22:59:36.318Z,21.00
2022-08-11T23:02:24.187Z,21.00
2022-08-11T23:05:10.895Z,20.90
2022-08-11T23:07:57.482Z,20.90
2022-08-11T23:10:45.284Z,20.80
2022-08-11T23:13:32.226Z,20.80
2022-08-11T23:16:19.031Z,20.70
2022-08-11T23:19:05.732Z,20.70
2022-08-11T23:21:53.379Z,20.60
2022-08-11T23:24:40.248Z,20.60
2022-08-11T23:27:28.208Z,20.60
2022-08-11T23:30:17.163Z,20.50
2022-08-11T23:33:10.167Z,20.50
2022-08-11T23:36:07.428Z,20.50
2022-08-11T23:38:53.676Z,20.40
2022-08-11T23:41:40.733Z,20.40
2022-08-11T23:44:27.612Z,20.40
2022-08-11T23:47:17.566Z,20.50
2022-08-11T23:50:05.107Z,20.50
2022-08-11T23:52:53.208Z,20.50
2022-08-11T23:55:40.112Z,20.50
2022-08-11T23:58:27.029Z,20.50
